METAR Data
IDs: Format: Raw Decoded Include TAF

Data at: 2217 UTC 25 Oct 2021

LGKZ 252150Z AUTO 35004KT //// // ////// 03/01 Q1028 RE//